sensor_id;sensor_type;location;lat;lon;timestamp;pressure;altitude;pressure_sealevel;temperature;humidity
49843;BME280;55559;48.898;9.184;2023-01-06T00:01:02;99068.34;;;9.11;100.00
49843;BME280;55559;48.898;9.184;2023-01-06T00:03:30;99060.16;;;9.15;100.00
49843;BME280;55559;48.898;9.184;2023-01-06T00:05:57;99061.72;;;9.17;100.00
49843;BME280;55559;48.898;9.184;2023-01-06T00:08:25;99051.88;;;9.19;100.00
49843;BME280;55559;48.898;9.184;2023-01-06T00:10:54;99053.66;;;9.19;100.00
49843;BME280;55559;48.898;9.184;2023-01-06T00:13:22;99050.78;;;9.22;100.00
49843;BME280;55559;48.898;9.184;2023-01-06T00:15:49;99048.75;;;9.25;100.00
49843;BME280;55559;48.898;9.184;2023-01-06T00:18:17;99050.56;;;9.25;100.00
49843;BME280;55559;48.898;9.184;2023-01-06T00:20:44;99044.69;;;9.33;100.00
49843;BME280;55559;48.898;9.184;2023-01-06T00:23:12;99038.91;;;9.39;100.00
49843;BME280;55559;48.898;9.184;2023-01-06T00:25:48;99042.06;;;9.44;100.00
49843;BME280;55559;48.898;9.184;2023-01-06T00:28:17;99027.56;;;9.37;100.00
49843;BME280;55559;48.898;9.184;2023-01-06T00:30:44;99031.16;;;9.36;100.00
49843;BME280;55559;48.898;9.184;2023-01-06T00:33:11;99028.63;;;9.34;100.00
49843;BME280;55559;48.898;9.184;2023-01-06T00:35:40;99023.09;;;9.37;100.00
49843;BME280;55559;48.898;9.184;2023-01-06T00:38:07;99020.81;;;9.33;100.00
49843;BME280;55559;48.898;9.184;2023-01-06T00:40:35;99017.06;;;9.35;100.00
49843;BME280;55559;48.898;9.184;2023-01-06T00:43:03;99009.22;;;9.34;100.00
49843;BME280;55559;48.898;9.184;2023-01-06T00:45:33;99018.28;;;9.31;100.00
49843;BME280;55559;48.898;9.184;2023-01-06T00:48:00;99011.97;;;9.32;100.00
49843;BME280;55559;48.898;9.184;2023-01-06T00:50:28;99013.41;;;9.25;100.00
49843;BME280;55559;48.898;9.184;2023-01-06T00:52:56;99013.69;;;9.33;100.00
49843;BME280;55559;48.898;9.184;2023-01-06T00:55:23;99016.34;;;9.33;100.00
49843;BME280;55559;48.898;9.184;2023-01-06T00:57:51;99012.97;;;9.31;100.00
49843;BME280;55559;48.898;9.184;2023-01-06T01:00:19;99013.06;;;9.29;100.00
49843;BME280;55559;48.898;9.184;2023-01-06T01:02:48;99013.19;;;9.28;100.00
49843;BME280;55559;48.898;9.184;2023-01-06T01:05:15;99015.34;;;9.23;100.00
49843;BME280;55559;48.898;9.184;2023-01-06T01:07:43;99005.66;;;9.22;100.00
49843;BME280;55559;48.898;9.184;2023-01-06T01:10:11;99015.34;;;9.23;100.00
49843;BME280;55559;48.898;9.184;2023-01-06T01:12:38;99013.03;;;9.18;100.00
49843;BME280;55559;48.898;9.184;2023-01-06T01:15:07;99005.06;;;9.18;100.00
49843;BME280;55559;48.898;9.184;2023-01-06T01:17:34;99014.47;;;9.22;100.00
49843;BME280;55559;48.898;9.184;2023-01-06T01:20:04;99019.56;;;9.25;100.00
49843;BME280;55559;48.898;9.184;2023-01-06T01:22:32;99017.41;;;9.30;100.00
49843;BME280;55559;48.898;9.184;2023-01-06T01:24:59;99016.00;;;9.38;100.00
49843;BME280;55559;48.898;9.184;2023-01-06T01:27:27;99015.41;;;9.45;100.00
49843;BME280;55559;48.898;9.184;2023-01-06T01:29:58;99011.69;;;9.48;100.00
49843;BME280;55559;48.898;9.184;2023-01-06T01:32:25;99006.13;;;9.51;100.00
49843;BME280;55559;48.898;9.184;2023-01-06T01:34:53;99009.78;;;9.61;100.00
49843;BME280;55559;48.898;9.184;2023-01-06T01:37:22;98999.91;;;9.63;100.00
49843;BME280;55559;48.898;9.184;2023-01-06T01:39:49;99003.38;;;9.64;100.00
49843;BME280;55559;48.898;9.184;2023-01-06T01:42:19;99005.09;;;9.65;100.00
49843;BME280;55559;48.898;9.184;2023-01-06T01:44:54;98993.25;;;9.69;100.00
49843;BME280;55559;48.898;9.184;2023-01-06T01:47:29;98998.19;;;9.62;100.00
49843;BME280;55559;48.898;9.184;2023-01-06T01:50:03;98996.63;;;9.60;100.00
49843;BME280;55559;48.898;9.184;2023-01-06T01:52:33;98998.44;;;9.59;100.00
49843;BME280;55559;48.898;9.184;2023-01-06T01:55:02;98999.03;;;9.63;100.00
49843;BME280;55559;48.898;9.184;2023-01-06T01:57:34;98994.22;;;9.57;100.00
49843;BME280;55559;48.898;9.184;2023-01-06T02:00:05;98992.25;;;9.47;100.00
49843;BME280;55559;48.898;9.184;2023-01-06T02:02:39;98996.72;;;9.47;100.00
49843;BME280;55559;48.898;9.184;2023-01-06T02:05:10;98994.06;;;9.47;100.00
49843;BME280;55559;48.898;9.184;2023-01-06T02:07:40;98998.41;;;9.48;100.00
49843;BME280;55559;48.898;9.184;2023-01-06T02:10:11;98991.53;;;9.45;100.00
49843;BME280;55559;48.898;9.184;2023-01-06T02:12:39;98993.22;;;9.46;100.00
49843;BME280;55559;48.898;9.184;2023-01-06T02:15:16;98993.09;;;9.48;100.00
49843;BME280;55559;48.898;9.184;2023-01-06T02:17:58;98987.69;;;9.49;100.00
49843;BME280;55559;48.898;9.184;2023-01-06T02:20:51;98983.81;;;9.54;100.00
49843;BME280;55559;48.898;9.184;2023-01-06T02:33:05;98984.44;;;9.57;100.00
49843;BME280;55559;48.898;9.184;2023-01-06T02:36:00;98987.31;;;9.54;100.00
49843;BME280;55559;48.898;9.184;2023-01-06T02:38:39;98976.59;;;9.67;100.00
49843;BME280;55559;48.898;9.184;2023-01-06T02:41:21;98978.66;;;9.63;100.00
49843;BME280;55559;48.898;9.184;2023-01-06T02:44:00;98983.97;;;9.63;100.00
49843;BME280;55559;48.898;9.184;2023-01-06T02:46:46;98980.81;;;9.69;100.00
49843;BME280;55559;48.898;9.184;2023-01-06T02:49:28;98979.50;;;9.64;100.00
49843;BME280;55559;48.898;9.184;2023-01-06T02:52:01;98982.88;;;9.66;100.00
49843;BME280;55559;48.898;9.184;2023-01-06T02:54:44;98975.00;;;9.64;100.00
49843;BME280;55559;48.898;9.184;2023-01-06T02:57:17;98973.22;;;9.65;100.00
49843;BME280;55559;48.898;9.184;2023-01-06T02:59:49;98974.78;;;9.67;100.00
49843;BME280;55559;48.898;9.184;2023-01-06T03:02:23;98977.44;;;9.67;100.00
49843;BME280;55559;48.898;9.184;2023-01-06T03:04:54;98973.84;;;9.68;100.00
49843;BME280;55559;48.898;9.184;2023-01-06T03:07:24;98970.56;;;9.76;100.00
49843;BME280;55559;48.898;9.184;2023-01-06T03:09:54;98960.81;;;9.77;100.00
49843;BME280;55559;48.898;9.184;2023-01-06T03:12:26;98949.56;;;9.84;100.00
49843;BME280;55559;48.898;9.184;2023-01-06T03:14:56;98952.22;;;9.84;100.00
49843;BME280;55559;48.898;9.184;2023-01-06T03:17:24;98969.03;;;9.85;100.00
49843;BME280;55559;48.898;9.184;2023-01-06T03:19:53;98962.50;;;9.89;100.00
49843;BME280;55559;48.898;9.184;2023-01-06T03:22:22;98962.75;;;9.86;100.00
49843;BME280;55559;48.898;9.184;2023-01-06T03:24:51;98964.19;;;9.79;100.00
49843;BME280;55559;48.898;9.184;2023-01-06T03:27:24;98962.97;;;9.72;100.00
49843;BME280;55559;48.898;9.184;2023-01-06T03:29:53;98968.75;;;9.65;100.00
49843;BME280;55559;48.898;9.184;2023-01-06T03:32:25;98955.59;;;9.64;100.00
49843;BME280;55559;48.898;9.184;2023-01-06T03:35:24;98961.13;;;9.61;100.00
49843;BME280;55559;48.898;9.184;2023-01-06T03:38:01;98964.66;;;9.61;100.00
49843;BME280;55559;48.898;9.184;2023-01-06T03:40:38;98957.41;;;9.63;100.00
49843;BME280;55559;48.898;9.184;2023-01-06T03:43:17;98955.94;;;9.59;100.00
49843;BME280;55559;48.898;9.184;2023-01-06T03:45:54;98954.16;;;9.60;100.00
49843;BME280;55559;48.898;9.184;2023-01-06T03:48:34;98949.06;;;9.57;100.00
49843;BME280;55559;48.898;9.184;2023-01-06T03:51:08;98951.25;;;9.52;100.00
49843;BME280;55559;48.898;9.184;2023-01-06T03:53:45;98949.75;;;9.47;100.00
49843;BME280;55559;48.898;9.184;2023-01-06T03:56:18;98951.47;;;9.48;100.00
49843;BME280;55559;48.898;9.184;2023-01-06T03:58:50;98956.28;;;9.43;100.00
49843;BME280;55559;48.898;9.184;2023-01-06T04:01:20;98950.75;;;9.46;100.00
49843;BME280;55559;48.898;9.184;2023-01-06T04:03:50;98952.31;;;9.38;100.00
49843;BME280;55559;48.898;9.184;2023-01-06T04:06:20;98954.47;;;9.33;100.00
49843;BME280;55559;48.898;9.184;2023-01-06T04:08:48;98958.78;;;9.34;100.00
49843;BME280;55559;48.898;9.184;2023-01-06T04:11:17;98965.31;;;9.29;100.00
49843;BME280;55559;48.898;9.184;2023-01-06T04:13:59;98966.88;;;9.32;100.00
49843;BME280;55559;48.898;9.184;2023-01-06T04:16:27;98977.38;;;9.34;100.00
49843;BME280;55559;48.898;9.184;2023-01-06T04:18:55;98963.03;;;9.36;100.00
49843;BME280;55559;48.898;9.184;2023-01-06T04:21:24;98968.59;;;9.44;100.00
49843;BME280;55559;48.898;9.184;2023-01-06T04:23:52;98960.75;;;9.43;100.00
49843;BME280;55559;48.898;9.184;2023-01-06T04:26:19;98966.56;;;9.48;100.00
49843;BME280;55559;48.898;9.184;2023-01-06T04:28:49;98959.69;;;9.57;100.00
49843;BME280;55559;48.898;9.184;2023-01-06T04:31:17;98959.94;;;9.54;100.00
49843;BME280;55559;48.898;9.184;2023-01-06T04:33:47;98966.94;;;9.55;100.00
49843;BME280;55559;48.898;9.184;2023-01-06T04:36:15;98959.59;;;9.58;100.00
49843;BME280;55559;48.898;9.184;2023-01-06T04:38:49;98953.16;;;9.61;100.00
49843;BME280;55559;48.898;9.184;2023-01-06T04:41:17;98956.31;;;9.66;100.00
49843;BME280;55559;48.898;9.184;2023-01-06T04:43:44;98952.94;;;9.64;100.00
49843;BME280;55559;48.898;9.184;2023-01-06T04:46:12;98955.81;;;9.61;100.00
49843;BME280;55559;48.898;9.184;2023-01-06T04:48:39;98960.19;;;9.62;100.00
49843;BME280;55559;48.898;9.184;2023-01-06T04:51:08;98946.78;;;9.63;100.00
49843;BME280;55559;48.898;9.184;2023-01-06T04:53:37;98951.38;;;9.61;100.00
49843;BME280;55559;48.898;9.184;2023-01-06T04:56:09;98950.78;;;9.69;100.00
49843;BME280;55559;48.898;9.184;2023-01-06T04:58:37;98952.09;;;9.63;100.00
49843;BME280;55559;48.898;9.184;2023-01-06T05:01:07;98951.50;;;9.60;100.00
49843;BME280;55559;48.898;9.184;2023-01-06T05:03:35;98948.25;;;9.56;100.00
49843;BME280;55559;48.898;9.184;2023-01-06T05:06:03;98934.22;;;9.54;100.00
49843;BME280;55559;48.898;9.184;2023-01-06T05:08:35;98935.09;;;9.55;100.00
49843;BME280;55559;48.898;9.184;2023-01-06T05:11:06;98944.00;;;9.54;100.00
49843;BME280;55559;48.898;9.184;2023-01-06T05:13:34;98949.91;;;9.57;100.00
49843;BME280;55559;48.898;9.184;2023-01-06T05:16:07;98942.78;;;9.58;100.00
49843;BME280;55559;48.898;9.184;2023-01-06T05:18:35;98944.09;;;9.52;100.00
49843;BME280;55559;48.898;9.184;2023-01-06T05:21:03;98942.78;;;9.58;100.00
49843;BME280;55559;48.898;9.184;2023-01-06T05:23:30;98948.25;;;9.56;100.00
49843;BME280;55559;48.898;9.184;2023-01-06T05:25:58;98935.91;;;9.55;100.00
49843;BME280;55559;48.898;9.184;2023-01-06T05:28:27;98940.28;;;9.56;100.00
49843;BME280;55559;48.898;9.184;2023-01-06T05:30:58;98947.47;;;9.54;100.00
49843;BME280;55559;48.898;9.184;2023-01-06T05:33:25;98943.16;;;9.53;100.00
49843;BME280;55559;48.898;9.184;2023-01-06T05:35:56;98943.38;;;9.50;100.00
49843;BME280;55559;48.898;9.184;2023-01-06T05:38:24;98937.97;;;9.52;100.00
49843;BME280;55559;48.898;9.184;2023-01-06T05:40:51;98946.03;;;9.50;100.00
49843;BME280;55559;48.898;9.184;2023-01-06T05:43:22;98946.75;;;9.52;100.00
49843;BME280;55559;48.898;9.184;2023-01-06T05:45:50;98942.56;;;9.49;100.00
49843;BME280;55559;48.898;9.184;2023-01-06T05:48:19;98933.50;;;9.52;100.00
49843;BME280;55559;48.898;9.184;2023-01-06T05:50:46;98935.44;;;9.50;100.00
49843;BME280;55559;48.898;9.184;2023-01-06T05:53:14;98938.56;;;9.55;100.00
49843;BME280;55559;48.898;9.184;2023-01-06T05:55:41;98936.38;;;9.49;100.00
49843;BME280;55559;48.898;9.184;2023-01-06T05:58:08;98943.84;;;9.44;100.00
49843;BME280;55559;48.898;9.184;2023-01-06T06:00:36;98937.09;;;9.40;100.00
49843;BME280;55559;48.898;9.184;2023-01-06T06:03:05;98925.88;;;9.36;100.00
49843;BME280;55559;48.898;9.184;2023-01-06T06:05:32;98921.03;;;9.30;100.00
49843;BME280;55559;48.898;9.184;2023-01-06T06:07:59;98920.66;;;9.23;100.00
49843;BME280;55559;48.898;9.184;2023-01-06T06:10:27;98913.03;;;9.19;100.00
49843;BME280;55559;48.898;9.184;2023-01-06T06:12:54;98930.66;;;9.20;100.00
49843;BME280;55559;48.898;9.184;2023-01-06T06:15:22;98929.69;;;9.21;100.00
49843;BME280;55559;48.898;9.184;2023-01-06T06:17:49;98918.72;;;9.25;100.00
49843;BME280;55559;48.898;9.184;2023-01-06T06:20:18;98920.06;;;9.31;100.00
49843;BME280;55559;48.898;9.184;2023-01-06T06:22:45;98924.13;;;9.24;100.00
49843;BME280;55559;48.898;9.184;2023-01-06T06:25:13;98935.13;;;9.19;100.00
49843;BME280;55559;48.898;9.184;2023-01-06T06:27:40;98951.28;;;9.16;100.00
49843;BME280;55559;48.898;9.184;2023-01-06T06:30:08;98936.06;;;9.18;100.00
49843;BME280;55559;48.898;9.184;2023-01-06T06:32:36;98947.75;;;9.16;100.00
49843;BME280;55559;48.898;9.184;2023-01-06T06:35:04;98945.97;;;9.16;100.00
49843;BME280;55559;48.898;9.184;2023-01-06T06:37:34;98948.88;;;9.24;100.00
49843;BME280;55559;48.898;9.184;2023-01-06T06:40:03;98955.72;;;9.16;100.00
49843;BME280;55559;48.898;9.184;2023-01-06T06:42:31;98938.50;;;9.21;100.00
49843;BME280;55559;48.898;9.184;2023-01-06T06:44:58;98939.19;;;9.12;100.00
49843;BME280;55559;48.898;9.184;2023-01-06T06:47:26;98948.84;;;9.13;100.00
49843;BME280;55559;48.898;9.184;2023-01-06T06:49:53;98951.00;;;9.08;100.00
49843;BME280;55559;48.898;9.184;2023-01-06T06:52:21;98953.03;;;9.04;100.00
49843;BME280;55559;48.898;9.184;2023-01-06T06:54:49;98954.81;;;9.04;100.00
49843;BME280;55559;48.898;9.184;2023-01-06T06:57:17;98957.72;;;9.01;100.00
49843;BME280;55559;48.898;9.184;2023-01-06T06:59:44;98963.03;;;9.01;100.00
49843;BME280;55559;48.898;9.184;2023-01-06T07:02:12;98961.06;;;8.91;100.00
49843;BME280;55559;48.898;9.184;2023-01-06T07:04:39;98966.84;;;8.97;100.00
49843;BME280;55559;48.898;9.184;2023-01-06T07:07:07;98975.22;;;9.03;100.00
49843;BME280;55559;48.898;9.184;2023-01-06T07:09:34;98982.44;;;9.01;100.00
49843;BME280;55559;48.898;9.184;2023-01-06T07:12:03;98987.97;;;8.98;100.00
49843;BME280;55559;48.898;9.184;2023-01-06T07:14:31;99008.34;;;8.98;100.00
49843;BME280;55559;48.898;9.184;2023-01-06T07:16:59;99005.91;;;8.94;100.00
49843;BME280;55559;48.898;9.184;2023-01-06T07:19:27;99016.09;;;9.01;100.00
49843;BME280;55559;48.898;9.184;2023-01-06T07:21:54;99012.53;;;8.89;100.00
49843;BME280;55559;48.898;9.184;2023-01-06T07:24:22;99016.34;;;8.85;100.00
49843;BME280;55559;48.898;9.184;2023-01-06T07:26:49;99017.94;;;8.87;100.00
49843;BME280;55559;48.898;9.184;2023-01-06T07:29:18;99026.19;;;8.96;100.00
49843;BME280;55559;48.898;9.184;2023-01-06T07:31:46;99012.41;;;8.90;100.00
49843;BME280;55559;48.898;9.184;2023-01-06T07:34:13;99025.22;;;8.97;100.00
49843;BME280;55559;48.898;9.184;2023-01-06T07:36:40;99028.25;;;9.03;100.00
49843;BME280;55559;48.898;9.184;2023-01-06T07:39:08;99033.91;;;8.99;100.00
49843;BME280;55559;48.898;9.184;2023-01-06T07:41:35;99038.16;;;9.01;100.00
49843;BME280;55559;48.898;9.184;2023-01-06T07:44:07;99045.16;;;9.02;100.00
49843;BME280;55559;48.898;9.184;2023-01-06T07:46:35;99042.94;;;8.96;100.00
49843;BME280;55559;48.898;9.184;2023-01-06T07:49:03;99038.19;;;8.88;100.00
49843;BME280;55559;48.898;9.184;2023-01-06T07:51:31;99060.50;;;8.86;100.00
49843;BME280;55559;48.898;9.184;2023-01-06T07:53:58;99048.56;;;8.91;100.00
49843;BME280;55559;48.898;9.184;2023-01-06T07:56:29;99062.41;;;8.84;100.00
49843;BME280;55559;48.898;9.184;2023-01-06T07:58:57;99071.13;;;8.73;100.00
49843;BME280;55559;48.898;9.184;2023-01-06T08:01:24;99071.91;;;8.62;100.00
49843;BME280;55559;48.898;9.184;2023-01-06T08:03:53;99105.50;;;8.62;100.00
49843;BME280;55559;48.898;9.184;2023-01-06T08:06:20;99063.53;;;8.55;100.00
49843;BME280;55559;48.898;9.184;2023-01-06T08:08:48;99053.56;;;8.59;100.00
49843;BME280;55559;48.898;9.184;2023-01-06T08:11:16;99047.53;;;8.57;100.00
49843;BME280;55559;48.898;9.184;2023-01-06T08:13:43;99052.25;;;8.65;100.00
49843;BME280;55559;48.898;9.184;2023-01-06T08:16:11;99033.69;;;8.65;100.00
49843;BME280;55559;48.898;9.184;2023-01-06T08:18:39;99039.41;;;8.71;100.00
49843;BME280;55559;48.898;9.184;2023-01-06T08:21:09;99035.91;;;8.71;100.00
49843;BME280;55559;48.898;9.184;2023-01-06T08:23:37;99039.09;;;8.76;100.00
49843;BME280;55559;48.898;9.184;2023-01-06T08:26:06;99044.38;;;8.76;100.00
49843;BME280;55559;48.898;9.184;2023-01-06T08:28:34;99038.97;;;8.78;100.00
49843;BME280;55559;48.898;9.184;2023-01-06T08:31:02;99036.94;;;8.81;100.00
49843;BME280;55559;48.898;9.184;2023-01-06T08:33:29;99033.34;;;8.82;100.00
49843;BME280;55559;48.898;9.184;2023-01-06T08:35:57;99028.34;;;8.90;100.00
49843;BME280;55559;48.898;9.184;2023-01-06T08:38:28;99035.59;;;9.00;100.00
49843;BME280;55559;48.898;9.184;2023-01-06T08:40:56;99031.25;;;8.99;100.00
49843;BME280;55559;48.898;9.184;2023-01-06T08:43:24;99031.75;;;9.04;100.00
49843;BME280;55559;48.898;9.184;2023-01-06T08:45:53;99033.56;;;9.03;100.00
49843;BME280;55559;48.898;9.184;2023-01-06T08:48:25;99028.78;;;9.08;100.00
49843;BME280;55559;48.898;9.184;2023-01-06T08:50:52;99026.50;;;9.15;100.00
49843;BME280;55559;48.898;9.184;2023-01-06T08:53:20;99028.78;;;9.33;100.00
49843;BME280;55559;48.898;9.184;2023-01-06T08:55:49;99034.31;;;9.41;100.00
49843;BME280;55559;48.898;9.184;2023-01-06T08:58:16;99029.50;;;9.35;100.00
49843;BME280;55559;48.898;9.184;2023-01-06T09:00:44;99028.91;;;9.42;100.00
49843;BME280;55559;48.898;9.184;2023-01-06T09:03:11;99038.13;;;9.49;100.00
49843;BME280;55559;48.898;9.184;2023-01-06T09:05:38;99039.22;;;9.58;100.00
49843;BME280;55559;48.898;9.184;2023-01-06T09:08:09;99029.34;;;9.60;100.00
49843;BME280;55559;48.898;9.184;2023-01-06T09:10:36;99017.53;;;9.76;100.00
49843;BME280;55559;48.898;9.184;2023-01-06T09:13:05;99016.69;;;9.75;100.00
49843;BME280;55559;48.898;9.184;2023-01-06T09:15:33;99020.44;;;9.84;100.00
49843;BME280;55559;48.898;9.184;2023-01-06T09:18:01;99035.06;;;9.90;100.00
49843;BME280;55559;48.898;9.184;2023-01-06T09:20:28;99027.22;;;9.88;100.00
49843;BME280;55559;48.898;9.184;2023-01-06T09:22:55;99036.91;;;10.00;100.00
49843;BME280;55559;48.898;9.184;2023-01-06T09:25:23;99042.22;;;10.00;100.00
49843;BME280;55559;48.898;9.184;2023-01-06T09:27:50;99044.28;;;10.08;100.00
49843;BME280;55559;48.898;9.184;2023-01-06T09:30:19;99048.75;;;10.08;100.00
49843;BME280;55559;48.898;9.184;2023-01-06T09:32:47;99052.25;;;10.08;100.00
49843;BME280;55559;48.898;9.184;2023-01-06T09:35:14;99052.50;;;10.16;100.00
49843;BME280;55559;48.898;9.184;2023-01-06T09:37:42;99055.34;;;10.37;100.00
49843;BME280;55559;48.898;9.184;2023-01-06T09:40:14;99058.81;;;10.38;100.00
49843;BME280;55559;48.898;9.184;2023-01-06T09:42:53;99054.13;;;10.64;100.00
49843;BME280;55559;48.898;9.184;2023-01-06T09:45:34;99054.44;;;10.71;100.00
49843;BME280;55559;48.898;9.184;2023-01-06T09:48:05;99058.91;;;10.70;100.00
49843;BME280;55559;48.898;9.184;2023-01-06T09:50:39;99061.09;;;10.65;100.00
49843;BME280;55559;48.898;9.184;2023-01-06T09:53:11;99060.16;;;10.66;100.00
49843;BME280;55559;48.898;9.184;2023-01-06T09:55:44;99062.78;;;10.77;100.00
49843;BME280;55559;48.898;9.184;2023-01-06T09:58:14;99061.59;;;10.70;100.00
49843;BME280;55559;48.898;9.184;2023-01-06T10:00:45;99048.91;;;10.63;100.00
49843;BME280;55559;48.898;9.184;2023-01-06T10:03:15;99059.28;;;10.66;100.00
49843;BME280;55559;48.898;9.184;2023-01-06T10:05:50;99045.03;;;10.67;100.00
49843;BME280;55559;48.898;9.184;2023-01-06T10:08:28;99042.59;;;10.64;100.00
49843;BME280;55559;48.898;9.184;2023-01-06T10:11:11;99040.47;;;10.57;100.00
49843;BME280;55559;48.898;9.184;2023-01-06T10:13:52;99039.94;;;10.64;100.00
49843;BME280;55559;48.898;9.184;2023-01-06T10:16:33;99030.13;;;10.75;100.00
49843;BME280;55559;48.898;9.184;2023-01-06T10:19:16;99022.38;;;10.95;100.00
49843;BME280;55559;48.898;9.184;2023-01-06T10:21:48;99021.00;;;11.01;100.00
49843;BME280;55559;48.898;9.184;2023-01-06T10:24:27;99017.53;;;10.89;100.00
49843;BME280;55559;48.898;9.184;2023-01-06T10:27:16;99009.44;;;10.90;100.00
49843;BME280;55559;48.898;9.184;2023-01-06T10:29:47;99007.66;;;10.79;100.00
49843;BME280;55559;48.898;9.184;2023-01-06T10:32:18;99013.69;;;10.82;100.00
49843;BME280;55559;48.898;9.184;2023-01-06T10:34:48;99020.41;;;10.97;100.00
49843;BME280;55559;48.898;9.184;2023-01-06T10:37:20;98998.41;;;10.95;100.00
49843;BME280;55559;48.898;9.184;2023-01-06T10:39:57;98995.97;;;11.03;100.00
49843;BME280;55559;48.898;9.184;2023-01-06T10:42:31;99001.19;;;10.93;100.00
49843;BME280;55559;48.898;9.184;2023-01-06T10:45:19;98998.56;;;10.82;100.00
49843;BME280;55559;48.898;9.184;2023-01-06T10:47:49;99003.06;;;10.82;100.00
49843;BME280;55559;48.898;9.184;2023-01-06T10:50:18;99010.78;;;10.85;100.00
49843;BME280;55559;48.898;9.184;2023-01-06T10:52:46;98998.19;;;10.87;100.00
49843;BME280;55559;48.898;9.184;2023-01-06T10:55:38;99000.91;;;11.08;100.00
49843;BME280;55559;48.898;9.184;2023-01-06T10:58:16;99000.72;;;10.88;100.00
49843;BME280;55559;48.898;9.184;2023-01-06T11:00:56;99004.81;;;10.92;100.00
49843;BME280;55559;48.898;9.184;2023-01-06T11:03:26;98999.16;;;10.86;100.00
49843;BME280;55559;48.898;9.184;2023-01-06T11:06:07;98997.84;;;10.80;100.00
49843;BME280;55559;48.898;9.184;2023-01-06T11:08:36;98998.19;;;10.87;100.00
49843;BME280;55559;48.898;9.184;2023-01-06T11:11:09;98991.38;;;11.05;100.00
49843;BME280;55559;48.898;9.184;2023-01-06T11:13:37;98999.28;;;10.84;100.00
49843;BME280;55559;48.898;9.184;2023-01-06T11:16:17;98998.72;;;10.69;100.00
49843;BME280;55559;48.898;9.184;2023-01-06T11:18:52;98987.31;;;10.90;100.00
49843;BME280;55559;48.898;9.184;2023-01-06T11:21:20;98983.00;;;11.10;100.00
49843;BME280;55559;48.898;9.184;2023-01-06T11:23:48;98974.91;;;11.11;100.00
49843;BME280;55559;48.898;9.184;2023-01-06T11:26:17;98987.09;;;11.14;100.00
49843;BME280;55559;48.898;9.184;2023-01-06T11:28:46;98976.44;;;11.14;100.00
49843;BME280;55559;48.898;9.184;2023-01-06T11:31:21;98969.91;;;11.18;100.00
49843;BME280;55559;48.898;9.184;2023-01-06T11:33:54;98973.38;;;11.30;100.00
49843;BME280;55559;48.898;9.184;2023-01-06T11:36:24;98963.53;;;11.51;100.00
49843;BME280;55559;48.898;9.184;2023-01-06T11:38:55;98962.63;;;11.62;100.00
49843;BME280;55559;48.898;9.184;2023-01-06T11:41:26;98975.41;;;11.26;100.00
49843;BME280;55559;48.898;9.184;2023-01-06T11:43:59;98980.09;;;11.34;100.00
49843;BME280;55559;48.898;9.184;2023-01-06T11:46:27;98976.69;;;11.11;100.00
49843;BME280;55559;48.898;9.184;2023-01-06T11:49:00;98981.25;;;11.20;100.00
49843;BME280;55559;48.898;9.184;2023-01-06T11:51:45;98982.72;;;11.13;100.00
49843;BME280;55559;48.898;9.184;2023-01-06T11:54:30;98973.75;;;11.25;100.00
49843;BME280;55559;48.898;9.184;2023-01-06T11:57:00;98977.06;;;11.06;100.00
49843;BME280;55559;48.898;9.184;2023-01-06T11:59:34;98976.59;;;11.01;100.00
49843;BME280;55559;48.898;9.184;2023-01-06T12:02:10;98964.09;;;11.13;100.00
49843;BME280;55559;48.898;9.184;2023-01-06T12:04:45;98965.91;;;11.12;100.00
49843;BME280;55559;48.898;9.184;2023-01-06T12:07:17;98963.28;;;11.01;100.00
49843;BME280;55559;48.898;9.184;2023-01-06T12:09:47;98956.75;;;11.05;100.00
49843;BME280;55559;48.898;9.184;2023-01-06T12:12:19;98952.50;;;11.14;100.00
49843;BME280;55559;48.898;9.184;2023-01-06T12:14:47;98962.75;;;11.19;100.00
49843;BME280;55559;48.898;9.184;2023-01-06T12:17:19;98957.72;;;11.04;100.00
49843;BME280;55559;48.898;9.184;2023-01-06T12:19:57;98960.69;;;10.90;100.00
49843;BME280;55559;48.898;9.184;2023-01-06T12:22:32;98954.78;;;10.86;100.00
49843;BME280;55559;48.898;9.184;2023-01-06T12:25:05;98961.88;;;10.97;100.00
49843;BME280;55559;48.898;9.184;2023-01-06T12:27:41;98953.75;;;10.98;100.00
49843;BME280;55559;48.898;9.184;2023-01-06T12:30:15;98942.75;;;11.03;100.00
49843;BME280;55559;48.898;9.184;2023-01-06T12:32:45;98942.47;;;11.06;100.00
49843;BME280;55559;48.898;9.184;2023-01-06T12:35:19;98932.09;;;11.24;100.00
49843;BME280;55559;48.898;9.184;2023-01-06T12:37:49;98928.22;;;11.28;100.00
49843;BME280;55559;48.898;9.184;2023-01-06T12:40:24;98920.13;;;11.30;100.00
49843;BME280;55559;48.898;9.184;2023-01-06T12:42:59;98920.94;;;11.30;100.00
49843;BME280;55559;48.898;9.184;2023-01-06T12:45:35;98925.34;;;11.41;100.00
49843;BME280;55559;48.898;9.184;2023-01-06T12:48:14;98914.19;;;11.47;100.00
49843;BME280;55559;48.898;9.184;2023-01-06T12:50:49;98926.41;;;11.29;100.00
49843;BME280;55559;48.898;9.184;2023-01-06T12:53:22;98922.50;;;11.33;100.00
49843;BME280;55559;48.898;9.184;2023-01-06T12:56:00;98935.03;;;11.21;100.00
49843;BME280;55559;48.898;9.184;2023-01-06T12:58:34;98927.81;;;11.12;100.00
49843;BME280;55559;48.898;9.184;2023-01-06T13:01:06;98927.56;;;11.15;100.00
49843;BME280;55559;48.898;9.184;2023-01-06T13:04:02;98928.28;;;11.17;100.00
49843;BME280;55559;48.898;9.184;2023-01-06T13:06:49;98945.88;;;11.08;100.00
49843;BME280;55559;48.898;9.184;2023-01-06T13:09:30;98935.94;;;11.10;100.00
49843;BME280;55559;48.898;9.184;2023-01-06T13:12:16;98932.31;;;11.11;100.00
49843;BME280;55559;48.898;9.184;2023-01-06T13:14:54;98947.47;;;11.00;100.00
49843;BME280;55559;48.898;9.184;2023-01-06T13:17:31;98940.34;;;11.00;100.00
49843;BME280;55559;48.898;9.184;2023-01-06T13:20:03;98942.41;;;10.96;100.00
49843;BME280;55559;48.898;9.184;2023-01-06T13:22:42;98928.13;;;10.65;100.00
49843;BME280;55559;48.898;9.184;2023-01-06T13:28:26;98930.75;;;10.76;100.00
49843;BME280;55559;48.898;9.184;2023-01-06T13:31:19;98932.59;;;10.76;100.00